Close Search

Base
°C
Summit
°C

WEATHER AT A GLANCE

Image Slideshow

RMR Village

Revelstoke Mountain Resort -  RMR Village Webcam

Top of The Stoke

Revelstoke Mountain Resort -  Top of The Stoke Webcam

Top of Stellar

Revelstoke Mountain Resort -  Top of Stellar Webcam

Mackenzie Outpost

Revelstoke Mountain Resort -  Mackenzie Outpost Webcam

Ripper

Revelstoke Mountain Resort -  Ripper Webcam
Base
°C
Summit
°C
Wind (Summit)
km/h

Today's Forecast

Subpeak Weather

Time Avg. Air Temp Dew Point Avg. Rel Humidity Avg. 2 Min Wind Speed Max Gust Velocity MGV Time MGV Direction Avg. Spot Wind Velocity
2026-05-08 08:30:005° C-7° C41%14 km/h15 km/h08:30:00S14 km/h
07:30:005° C-7° C44%18 km/h19 km/h07:26:00SW18 km/h
06:30:005° C-7° C40%15 km/h18 km/h06:27:00SW16 km/h
05:30:005° C-7° C42%21 km/h22 km/h05:29:00W19 km/h
04:30:004° C-5° C52%21 km/h23 km/h04:30:00SW22 km/h
03:30:004° C-5° C51%17 km/h18 km/h03:30:00SW16 km/h
02:30:005° C-7° C41%18 km/h21 km/h02:30:00SW18 km/h
01:30:005° C-6° C46%19 km/h21 km/h01:29:00SW18 km/h
00:30:005° C-6° C44%16 km/h21 km/h00:26:00W16 km/h
23:30:005° C-4° C54%16 km/h17 km/h23:29:00SW16 km/h
22:30:005° C-4° C51%16 km/h17 km/h22:27:00SW16 km/h
21:30:005° C-4° C51%13 km/h15 km/h21:29:00W13 km/h
20:30:005° C-4° C50%16 km/h17 km/h20:30:00W16 km/h
19:30:006° C-3° C51%5 km/h12 km/h19:26:00NW7 km/h
18:30:006° C-3° C53%8 km/h14 km/h18:28:00W9 km/h
17:30:006° C-4° C49%4 km/h14 km/h17:26:00NW10 km/h
16:30:006° C-3° C52%5 km/h15 km/h16:27:00NW6 km/h
15:30:005° C-3° C52%7 km/h17 km/h15:26:00N8 km/h
14:30:004° C-2° C63%12 km/h20 km/h14:28:00W9 km/h
13:30:004° C-2° C66%5 km/h12 km/h13:30:00N6 km/h
12:30:003° C-1° C74%4 km/h9 km/h12:26:00SW5 km/h
11:30:002° C-2° C76%5 km/h11 km/h11:26:00NE6 km/h
10:30:002° C0° C88%7 km/h8 km/h10:30:00NE6 km/h
09:30:001° C1° C100%1 km/h6 km/h09:26:00NW1 km/h

Time Avg. Air Temp Dew Point Avg. Rel Humidity Avg. 2 Min Wind Speed Max Gust Velocity MGV Time MGV Direction Avg. Spot Wind Velocity
2026-05-08 08:30:005° C-7° C41%14 km/h15 km/h08:30:00S14 km/h
08:25:005° C-7° C42%13 km/h14 km/h08:24:00S12 km/h
08:20:005° C-7° C41%11 km/h12 km/h08:19:00S10 km/h
08:15:005° C-7° C41%12 km/h15 km/h08:11:00S12 km/h
08:10:005° C-7° C41%12 km/h16 km/h08:07:00S12 km/h
08:05:005° C-7° C41%14 km/h16 km/h08:02:00S14 km/h
08:00:005° C-7° C41%15 km/h18 km/h07:56:00SW16 km/h
07:55:005° C-7° C42%17 km/h19 km/h07:53:00S17 km/h
07:50:005° C-7° C42%17 km/h20 km/h07:48:00S17 km/h
07:45:005° C-7° C42%19 km/h21 km/h07:45:00SW19 km/h
07:40:005° C-7° C43%20 km/h22 km/h07:37:00SW20 km/h
07:35:005° C-6° C43%18 km/h20 km/h07:33:00SW19 km/h
07:30:005° C-7° C44%18 km/h19 km/h07:26:00SW18 km/h

We value your privacy
We use cookies to enhance your browsing experience, serve personalized ads or content, and analyze our traffic. By clicking "Allow Cookies", you consent to our use of cookies. For additional details view our Privacy Policy.
Cookie preferences

You can control how your data is used on our website. Learn more below about the cookies we use by reviewing our Privacy Policy.

Your cookie preferences have been saved.